Time;durP1;ratioP1;P1;durP2;ratioP2;P2;SDS_P1;SDS_P2;PMS_P1;PMS_P2;Temp;Humidity;BMP_temperature;BMP_pressure;BME280_temperature;BME280_humidity;BME280_pressure;Samples;Min_cycle;Max_cycle;Signal;HPM_P1;HPM_P2
2022/04/19 00:00:05;;;;;;;;;;;5.70;63.00;;;;;;5026242;28;86791;-49
2022/04/19 00:02:31;;;;;;;;;;;5.70;62.90;;;;;;5026034;28;89658;-50
2022/04/19 00:04:59;;;;;;;;;;;5.70;62.80;;;;;;5028899;28;88078;-49
2022/04/19 00:07:25;;;;;;;;;;;5.70;62.90;;;;;;5026044;28;87006;-49
2022/04/19 00:09:52;;;;;;;;;;;5.60;62.90;;;;;;5025609;28;87687;-49
2022/04/19 00:12:17;;;;;;;;;;;5.60;62.90;;;;;;5025388;28;87988;-50
2022/04/19 00:14:43;;;;;;;;;;;5.70;62.80;;;;;;5025957;28;88283;-49
2022/04/19 00:17:09;;;;;;;;;;;5.60;62.80;;;;;;5025822;28;86875;-50
2022/04/19 00:19:36;;;;;;;;;;;5.60;62.70;;;;;;5029635;28;87188;-49
2022/04/19 00:22:02;;;;;;;;;;;5.60;62.90;;;;;;5029222;28;87171;-49
2022/04/19 00:24:28;;;;;;;;;;;5.60;62.80;;;;;;5028941;28;88625;-49
2022/04/19 00:26:55;;;;;;;;;;;5.60;63.00;;;;;;5032149;28;86856;-49
2022/04/19 00:29:20;;;;;;;;;;;5.60;62.90;;;;;;5029474;28;87890;-49
2022/04/19 00:31:46;;;;;;;;;;;5.60;62.70;;;;;;5029119;28;86887;-50
2022/04/19 00:34:12;;;;;;;;;;;5.60;62.80;;;;;;5029304;28;87137;-49
2022/04/19 00:36:37;;;;;;;;;;;5.60;62.80;;;;;;5027525;28;87848;-49
2022/04/19 00:39:04;;;;;;;;;;;5.60;62.90;;;;;;5029116;28;86879;-49
2022/04/19 00:41:30;;;;;;;;;;;5.60;62.80;;;;;;5029065;28;87891;-49
2022/04/19 00:43:56;;;;;;;;;;;5.60;62.70;;;;;;5028577;28;88592;-50
2022/04/19 00:46:21;;;;;;;;;;;5.60;62.80;;;;;;5031964;28;87064;-50
2022/04/19 00:48:47;;;;;;;;;;;5.60;62.80;;;;;;5028569;28;89595;-50
2022/04/19 00:51:13;;;;;;;;;;;5.60;62.90;;;;;;5028818;28;87183;-49
2022/04/19 00:53:40;;;;;;;;;;;5.60;62.90;;;;;;5029413;28;87975;-49
2022/04/19 00:56:07;;;;;;;;;;;5.60;62.80;;;;;;5028443;28;88464;-49
2022/04/19 00:58:33;;;;;;;;;;;5.60;62.90;;;;;;5028829;28;86899;-50
2022/04/19 01:00:59;;;;;;;;;;;5.50;62.90;;;;;;5028204;28;87877;-49
2022/04/19 01:03:25;;;;;;;;;;;5.50;62.80;;;;;;5028406;28;87502;-49
2022/04/19 01:05:53;;;;;;;;;;;5.50;62.80;;;;;;5028433;28;87004;-49
2022/04/19 01:08:19;;;;;;;;;;;5.60;62.80;;;;;;5031258;28;88009;-49
2022/04/19 01:10:45;;;;;;;;;;;5.50;63.00;;;;;;5028566;28;86859;-50
2022/04/19 01:13:18;;;;;;;;;;;5.50;63.00;;;;;;5028754;28;87030;-49
2022/04/19 01:15:47;;;;;;;;;;;5.60;62.90;;;;;;5028110;28;88451;-49
2022/04/19 01:18:14;;;;;;;;;;;5.50;62.90;;;;;;5029028;28;86611;-49
2022/04/19 01:20:41;;;;;;;;;;;5.50;63.00;;;;;;5028844;28;86856;-49
2022/04/19 01:23:07;;;;;;;;;;;5.60;62.90;;;;;;5027957;28;88898;-50
2022/04/19 01:25:34;;;;;;;;;;;5.50;62.90;;;;;;5027605;28;87902;-49
2022/04/19 01:28:02;;;;;;;;;;;5.50;63.00;;;;;;5028472;28;87902;-49
2022/04/19 01:30:27;;;;;;;;;;;5.50;62.90;;;;;;5029908;28;87758;-50
2022/04/19 01:32:54;;;;;;;;;;;5.50;62.90;;;;;;5028561;28;86910;-50
2022/04/19 01:35:21;;;;;;;;;;;5.50;62.90;;;;;;5027785;28;88423;-49
2022/04/19 01:37:48;;;;;;;;;;;5.50;62.90;;;;;;5028142;28;86855;-49
2022/04/19 01:40:16;;;;;;;;;;;5.50;63.00;;;;;;5028283;28;87018;-49
2022/04/19 01:43:02;;;;;;;;;;;5.50;63.00;;;;;;5028365;28;87733;-49
2022/04/19 01:45:29;;;;;;;;;;;5.50;63.10;;;;;;5027403;28;87054;-49
2022/04/19 01:47:58;;;;;;;;;;;5.40;63.10;;;;;;5028066;28;88024;-49
2022/04/19 01:50:27;;;;;;;;;;;5.50;63.10;;;;;;5027229;28;88427;-49
2022/04/19 01:52:54;;;;;;;;;;;5.50;62.90;;;;;;5030763;28;87135;-49
2022/04/19 01:55:20;;;;;;;;;;;5.40;63.10;;;;;;5027500;28;88461;-49
2022/04/19 01:57:47;;;;;;;;;;;5.40;63.10;;;;;;5027782;28;86878;-49
2022/04/19 02:00:13;;;;;;;;;;;5.40;63.70;;;;;;5027783;28;86870;-49
2022/04/19 02:02:40;;;;;;;;;;;5.40;63.10;;;;;;5027468;28;88550;-49
2022/04/19 02:05:06;;;;;;;;;;;5.40;63.10;;;;;;5027347;28;87102;-49
2022/04/19 02:07:32;;;;;;;;;;;5.40;63.00;;;;;;5028132;28;88177;-49
2022/04/19 02:09:59;;;;;;;;;;;5.40;63.00;;;;;;5027566;28;86969;-49
2022/04/19 02:12:25;;;;;;;;;;;5.40;63.00;;;;;;5027215;28;86846;-49
2022/04/19 02:14:50;;;;;;;;;;;5.40;63.00;;;;;;5029546;28;87984;-49
2022/04/19 02:17:18;;;;;;;;;;;5.40;63.10;;;;;;5027913;28;86870;-49
2022/04/19 02:19:44;;;;;;;;;;;5.40;63.00;;;;;;5027578;28;87094;-49
2022/04/19 02:22:10;;;;;;;;;;;5.40;63.10;;;;;;5027013;28;88580;-49
2022/04/19 02:24:36;;;;;;;;;;;5.40;63.00;;;;;;5027496;28;86976;-49
2022/04/19 02:27:02;;;;;;;;;;;5.40;63.10;;;;;;5027439;28;87189;-49
2022/04/19 02:29:27;;;;;;;;;;;5.40;63.20;;;;;;5027001;28;88632;-49
2022/04/19 02:31:53;;;;;;;;;;;5.40;63.10;;;;;;5028070;28;86022;-49
2022/04/19 02:34:19;;;;;;;;;;;5.40;63.00;;;;;;5026673;28;86879;-49
2022/04/19 02:36:45;;;;;;;;;;;5.40;63.00;;;;;;5029355;28;88418;-49
2022/04/19 02:39:11;;;;;;;;;;;5.40;62.90;;;;;;5026312;28;87807;-50
2022/04/19 02:41:37;;;;;;;;;;;5.40;62.90;;;;;;5026024;28;88455;-49
2022/04/19 02:44:03;;;;;;;;;;;5.30;63.00;;;;;;5026491;28;86910;-49
2022/04/19 02:46:29;;;;;;;;;;;5.40;63.10;;;;;;5026696;28;86895;-49
2022/04/19 02:48:56;;;;;;;;;;;5.40;62.90;;;;;;5026081;28;88553;-50
2022/04/19 02:51:21;;;;;;;;;;;5.40;63.00;;;;;;5026273;28;86874;-49
2022/04/19 02:53:47;;;;;;;;;;;5.40;63.00;;;;;;5026689;28;86883;-49
2022/04/19 02:56:12;;;;;;;;;;;5.40;63.60;;;;;;5029575;28;86170;-49
2022/04/19 02:58:38;;;;;;;;;;;5.30;63.00;;;;;;5026476;28;87083;-50
2022/04/19 03:01:04;;;;;;;;;;;5.30;63.00;;;;;;5025799;28;88482;-49
2022/04/19 03:03:29;;;;;;;;;;;5.30;63.20;;;;;;5026075;28;88156;-50
2022/04/19 03:05:56;;;;;;;;;;;5.30;63.10;;;;;;5026205;28;88499;-50
2022/04/19 03:08:22;;;;;;;;;;;5.30;63.00;;;;;;5025706;28;87671;-49
2022/04/19 03:10:49;;;;;;;;;;;5.30;63.00;;;;;;5026154;28;86986;-49
2022/04/19 03:13:16;;;;;;;;;;;5.30;63.00;;;;;;5026021;28;87125;-49
2022/04/19 03:15:42;;;;;;;;;;;5.30;63.10;;;;;;5025348;28;86914;-49
2022/04/19 03:18:07;;;;;;;;;;;5.30;62.90;;;;;;5029086;28;86889;-49
2022/04/19 03:20:33;;;;;;;;;;;5.30;63.00;;;;;;5026383;28;86150;-49
2022/04/19 03:28:26;;;;;;;;;;;5.30;63.00;;;;;;5025106;28;87829;-49
2022/04/19 03:30:52;;;;;;;;;;;5.30;63.20;;;;;;5025850;28;86886;-49
2022/04/19 03:33:18;;;;;;;;;;;5.30;63.00;;;;;;5025785;28;87897;-49
2022/04/19 03:35:43;;;;;;;;;;;5.30;63.00;;;;;;5025419;28;87658;-49
2022/04/19 03:38:09;;;;;;;;;;;5.30;62.90;;;;;;5025661;28;86876;-49
2022/04/19 03:40:35;;;;;;;;;;;5.30;63.00;;;;;;5028277;28;87817;-49
2022/04/19 03:43:02;;;;;;;;;;;5.30;63.00;;;;;;5025865;28;86884;-49
2022/04/19 03:45:28;;;;;;;;;;;5.30;63.10;;;;;;5026171;28;88039;-49
2022/04/19 03:47:53;;;;;;;;;;;5.30;63.10;;;;;;5025553;28;86926;-49
2022/04/19 03:50:19;;;;;;;;;;;5.30;63.10;;;;;;5025618;28;86868;-49
2022/04/19 03:52:44;;;;;;;;;;;5.30;63.10;;;;;;5024053;28;87856;-49
2022/04/19 03:55:10;;;;;;;;;;;5.30;62.90;;;;;;5025375;28;87329;-49
2022/04/19 03:57:36;;;;;;;;;;;5.30;63.10;;;;;;5025722;28;86891;-49
2022/04/19 04:00:02;;;;;;;;;;;5.30;63.00;;;;;;5025815;28;87199;-49
2022/04/19 04:02:28;;;;;;;;;;;5.30;63.00;;;;;;5027877;28;89906;-50
2022/04/19 04:04:53;;;;;;;;;;;5.20;62.90;;;;;;5025062;28;87851;-49
2022/04/19 04:07:19;;;;;;;;;;;5.20;62.90;;;;;;5024788;28;87678;-54
2022/04/19 04:09:44;;;;;;;;;;;5.20;63.10;;;;;;5025979;28;86141;-49
2022/04/19 04:12:13;;;;;;;;;;;5.30;62.90;;;;;;5025324;28;87658;-49
2022/04/19 04:14:40;;;;;;;;;;;5.30;62.90;;;;;;5024889;28;87684;-50
2022/04/19 04:17:05;;;;;;;;;;;5.20;62.90;;;;;;5024609;28;88077;-49
2022/04/19 04:19:31;;;;;;;;;;;5.30;63.10;;;;;;5025164;28;88723;-49
2022/04/19 04:21:57;;;;;;;;;;;5.30;62.90;;;;;;5025209;28;87413;-49
2022/04/19 04:24:22;;;;;;;;;;;5.30;62.90;;;;;;5028104;28;86929;-49
2022/04/19 04:26:48;;;;;;;;;;;5.20;62.90;;;;;;5025236;28;88727;-49
2022/04/19 04:29:14;;;;;;;;;;;5.20;63.00;;;;;;5025179;28;86989;-49
2022/04/19 04:31:39;;;;;;;;;;;5.20;63.00;;;;;;5025079;28;87728;-49
2022/04/19 04:34:05;;;;;;;;;;;5.20;63.20;;;;;;5025388;28;86150;-49
2022/04/19 04:36:31;;;;;;;;;;;5.20;63.30;;;;;;5024792;28;86900;-49
2022/04/19 04:38:56;;;;;;;;;;;5.10;63.10;;;;;;5024928;28;87986;-49
2022/04/19 04:41:22;;;;;;;;;;;5.20;63.00;;;;;;5023898;28;89375;-50
2022/04/19 04:43:47;;;;;;;;;;;5.20;63.00;;;;;;5025473;28;87173;-50
2022/04/19 04:51:41;;;;;;;;;;;5.20;63.30;;;;;;5025163;28;87199;-49
2022/04/19 04:54:07;;;;;;;;;;;5.20;63.20;;;;;;5024422;28;88573;-49
2022/04/19 04:56:33;;;;;;;;;;;5.20;63.10;;;;;;5024943;28;87161;-49
2022/04/19 04:58:58;;;;;;;;;;;5.10;63.30;;;;;;5025429;28;87888;-50
2022/04/19 05:01:24;;;;;;;;;;;5.10;63.30;;;;;;5024345;28;88447;-50
2022/04/19 05:03:49;;;;;;;;;;;5.10;63.50;;;;;;5024956;28;86927;-49
2022/04/19 05:06:15;;;;;;;;;;;5.10;63.50;;;;;;5029029;28;88278;-49
2022/04/19 05:08:40;;;;;;;;;;;5.10;63.30;;;;;;5027968;28;86919;-50
2022/04/19 05:11:06;;;;;;;;;;;5.10;63.40;;;;;;5028184;28;86874;-51
2022/04/19 05:13:31;;;;;;;;;;;5.10;63.40;;;;;;5028413;28;87524;-49
2022/04/19 05:16:01;;;;;;;;;;;5.10;63.40;;;;;;5028533;28;86811;-49
2022/04/19 05:18:26;;;;;;;;;;;5.10;63.50;;;;;;5028586;28;86988;-50
2022/04/19 05:20:52;;;;;;;;;;;5.10;63.20;;;;;;5028124;28;88657;-49
2022/04/19 05:23:18;;;;;;;;;;;5.20;63.10;;;;;;5029029;28;86122;-49
2022/04/19 05:25:44;;;;;;;;;;;5.10;63.20;;;;;;5028685;28;86870;-50
2022/04/19 05:28:09;;;;;;;;;;;5.10;63.20;;;;;;5030772;28;88689;-49
2022/04/19 05:30:35;;;;;;;;;;;5.10;63.10;;;;;;5028062;28;87860;-50
2022/04/19 05:33:02;;;;;;;;;;;5.10;63.40;;;;;;5027747;28;88073;-49
2022/04/19 05:35:28;;;;;;;;;;;5.10;63.30;;;;;;5028268;28;86948;-49
2022/04/19 05:37:55;;;;;;;;;;;5.10;63.30;;;;;;5028227;28;87892;-49
2022/04/19 05:40:21;;;;;;;;;;;5.10;63.40;;;;;;5027911;28;88614;-49
2022/04/19 05:42:48;;;;;;;;;;;5.00;63.10;;;;;;5027981;28;86865;-50
2022/04/19 05:45:14;;;;;;;;;;;5.10;63.20;;;;;;5028196;28;86985;-49
2022/04/19 05:47:39;;;;;;;;;;;5.10;63.10;;;;;;5028243;28;86954;-49
2022/04/19 05:50:06;;;;;;;;;;;5.10;63.00;;;;;;5031175;28;86870;-49
2022/04/19 05:52:31;;;;;;;;;;;5.10;63.10;;;;;;5027404;28;88677;-50
2022/04/19 05:54:57;;;;;;;;;;;5.10;63.00;;;;;;5027333;28;87898;-49
2022/04/19 05:57:23;;;;;;;;;;;5.10;63.00;;;;;;5028090;28;86859;-49
2022/04/19 05:59:49;;;;;;;;;;;5.10;63.10;;;;;;5027784;28;87462;-49
2022/04/19 06:04:59;;;;;;;;;;;5.10;63.30;;;;;;5027850;28;86958;-49
2022/04/19 06:07:26;;;;;;;;;;;5.00;63.30;;;;;;5027427;28;88485;-50
2022/04/19 06:09:52;;;;;;;;;;;5.00;63.40;;;;;;5027885;28;87239;-49
2022/04/19 06:12:17;;;;;;;;;;;5.00;63.40;;;;;;5030537;28;87747;-49
2022/04/19 06:14:43;;;;;;;;;;;5.00;63.50;;;;;;5027721;28;86757;-49
2022/04/19 06:17:17;;;;;;;;;;;5.00;63.40;;;;;;5027189;28;87039;-49
2022/04/19 06:19:45;;;;;;;;;;;5.00;63.30;;;;;;5026497;28;89440;-49
2022/04/19 06:22:11;;;;;;;;;;;5.00;63.40;;;;;;5027390;28;86953;-49
2022/04/19 06:24:37;;;;;;;;;;;5.00;63.40;;;;;;5027536;28;87908;-49
2022/04/19 06:27:03;;;;;;;;;;;5.00;63.40;;;;;;5027087;28;88548;-50
2022/04/19 06:29:29;;;;;;;;;;;5.00;63.40;;;;;;5027716;28;86824;-49
2022/04/19 06:31:55;;;;;;;;;;;5.00;63.40;;;;;;5027491;28;87029;-49
2022/04/19 06:34:20;;;;;;;;;;;5.00;63.60;;;;;;5029315;28;87659;-49
2022/04/19 06:36:46;;;;;;;;;;;5.00;63.50;;;;;;5027797;28;86782;-49
2022/04/19 06:39:12;;;;;;;;;;;5.00;63.50;;;;;;5027070;28;87765;-49
2022/04/19 06:41:37;;;;;;;;;;;5.00;63.60;;;;;;5027229;28;86879;-49
2022/04/19 06:44:06;;;;;;;;;;;5.00;63.70;;;;;;5026591;28;87995;-49
2022/04/19 06:46:32;;;;;;;;;;;5.00;63.60;;;;;;5026948;28;88652;-49
2022/04/19 06:48:58;;;;;;;;;;;5.00;63.50;;;;;;5027062;28;86944;-49
2022/04/19 06:51:25;;;;;;;;;;;5.00;63.60;;;;;;5027116;28;87197;-49
2022/04/19 06:53:51;;;;;;;;;;;5.00;63.40;;;;;;5026652;28;88431;-49
2022/04/19 06:56:16;;;;;;;;;;;5.00;63.50;;;;;;5029789;28;86870;-49
2022/04/19 06:58:42;;;;;;;;;;;5.00;63.60;;;;;;5026592;28;88619;-49
2022/04/19 07:01:10;;;;;;;;;;;5.00;63.70;;;;;;5027518;28;86128;-49
2022/04/19 07:03:36;;;;;;;;;;;5.00;63.70;;;;;;5026866;28;86895;-49
2022/04/19 07:06:03;;;;;;;;;;;4.90;63.70;;;;;;5026304;28;88819;-49
2022/04/19 07:08:28;;;;;;;;;;;5.00;63.90;;;;;;5026227;28;88113;-49
2022/04/19 07:10:55;;;;;;;;;;;5.00;63.70;;;;;;5027184;28;87834;-49
2022/04/19 07:13:21;;;;;;;;;;;4.90;63.70;;;;;;5026322;28;87635;-49
2022/04/19 07:15:46;;;;;;;;;;;4.90;63.80;;;;;;5029616;28;86855;-49
2022/04/19 07:18:13;;;;;;;;;;;5.00;63.70;;;;;;5026260;28;88624;-49
2022/04/19 07:28:52;;;;;;;;;;;4.90;63.80;;;;;;5025873;28;86868;-49
2022/04/19 07:31:17;;;;;;;;;;;4.90;63.90;;;;;;5026449;28;87727;-49
2022/04/19 07:33:44;;;;;;;;;;;4.90;63.80;;;;;;5025427;28;89673;-50
2022/04/19 07:36:10;;;;;;;;;;;4.90;63.70;;;;;;5026389;28;86989;-49
2022/04/19 07:38:35;;;;;;;;;;;5.00;63.80;;;;;;5029019;28;87109;-49
2022/04/19 07:41:02;;;;;;;;;;;5.00;63.80;;;;;;5026412;28;86830;-49
2022/04/19 07:43:28;;;;;;;;;;;4.90;63.80;;;;;;5026312;28;87950;-49
2022/04/19 07:45:54;;;;;;;;;;;5.00;63.80;;;;;;5026005;28;88470;-49
2022/04/19 07:48:20;;;;;;;;;;;4.90;64.00;;;;;;5026405;28;86978;-49
2022/04/19 07:50:46;;;;;;;;;;;4.90;63.90;;;;;;5026694;28;87153;-49
2022/04/19 07:53:11;;;;;;;;;;;4.90;64.00;;;;;;5025728;28;87644;-49
2022/04/19 07:55:37;;;;;;;;;;;4.90;64.00;;;;;;5026433;28;86846;-49
2022/04/19 07:58:03;;;;;;;;;;;4.90;64.00;;;;;;5025568;28;87933;-49
2022/04/19 08:00:30;;;;;;;;;;;5.00;63.90;;;;;;5028672;28;88564;-49
2022/04/19 08:02:56;;;;;;;;;;;4.90;64.00;;;;;;5026052;28;87939;-49
2022/04/19 08:05:22;;;;;;;;;;;4.90;64.00;;;;;;5025518;28;88957;-49
2022/04/19 08:07:50;;;;;;;;;;;5.00;64.10;;;;;;5025947;28;86983;-49
2022/04/19 08:10:17;;;;;;;;;;;4.90;64.20;;;;;;5025988;28;88004;-49
2022/04/19 08:12:43;;;;;;;;;;;5.00;64.10;;;;;;5025436;28;88574;-49
2022/04/19 08:15:10;;;;;;;;;;;4.90;64.10;;;;;;5026461;28;86104;-49
2022/04/19 08:17:36;;;;;;;;;;;4.90;64.00;;;;;;5026215;28;86863;-49
2022/04/19 08:20:02;;;;;;;;;;;5.00;64.20;;;;;;5025353;28;88719;-49
2022/04/19 08:22:28;;;;;;;;;;;5.00;64.10;;;;;;5028180;28;87815;-49
2022/04/19 08:24:54;;;;;;;;;;;5.00;64.10;;;;;;5025370;28;88594;-49
2022/04/19 08:27:20;;;;;;;;;;;5.00;63.90;;;;;;5025840;28;86903;-49
2022/04/19 08:29:46;;;;;;;;;;;5.10;64.10;;;;;;5025874;28;87032;-49
2022/04/19 08:32:12;;;;;;;;;;;5.00;64.20;;;;;;5025515;28;87357;-49
2022/04/19 08:34:38;;;;;;;;;;;5.00;64.10;;;;;;5025739;28;86894;-49
2022/04/19 08:37:04;;;;;;;;;;;5.00;64.20;;;;;;5025987;28;87300;-49
2022/04/19 08:39:30;;;;;;;;;;;5.00;64.90;;;;;;5027717;28;86918;-49
2022/04/19 08:41:56;;;;;;;;;;;5.00;64.20;;;;;;5029362;28;86930;-49
2022/04/19 08:44:21;;;;;;;;;;;5.00;64.30;;;;;;5031607;28;87950;-49
2022/04/19 08:46:47;;;;;;;;;;;4.90;64.50;;;;;;5028697;28;87869;-50
2022/04/19 08:49:15;;;;;;;;;;;5.00;64.50;;;;;;5028580;28;87005;-49
2022/04/19 08:51:41;;;;;;;;;;;5.10;64.00;;;;;;5028847;28;86854;-49
2022/04/19 08:59:40;;;;;;;;;;;5.00;64.10;;;;;;5025584;28;87385;-49
2022/04/19 09:02:06;;;;;;;;;;;5.10;63.70;;;;;;5029045;28;86903;-49
2022/04/19 09:04:33;;;;;;;;;;;5.10;64.00;;;;;;5031572;28;87809;-50
2022/04/19 09:06:59;;;;;;;;;;;5.10;64.20;;;;;;5028752;28;87053;-49
2022/04/19 09:09:26;;;;;;;;;;;5.10;63.80;;;;;;5028742;28;87781;-50
2022/04/19 09:11:54;;;;;;;;;;;5.10;63.50;;;;;;5027617;28;89262;-49
2022/04/19 09:14:22;;;;;;;;;;;5.10;63.60;;;;;;5028508;28;87280;-49
2022/04/19 09:16:47;;;;;;;;;;;5.10;63.70;;;;;;5028656;28;87991;-49
2022/04/19 09:19:26;;;;;;;;;;;5.10;63.70;;;;;;5028347;28;87491;-49
2022/04/19 09:21:51;;;;;;;;;;;5.20;63.40;;;;;;5028514;28;86995;-49
2022/04/19 09:24:18;;;;;;;;;;;5.10;63.50;;;;;;5028713;28;86899;-50
2022/04/19 09:26:50;;;;;;;;;;;5.10;63.60;;;;;;5030880;28;87777;-51
2022/04/19 09:29:18;;;;;;;;;;;5.00;64.00;;;;;;5029061;28;86517;-49
2022/04/19 09:31:43;;;;;;;;;;;5.10;63.70;;;;;;5027951;28;87651;-50
2022/04/19 09:34:10;;;;;;;;;;;5.10;63.70;;;;;;5028679;28;87163;-49
2022/04/19 09:36:37;;;;;;;;;;;5.00;63.80;;;;;;5027751;28;87786;-50
2022/04/19 09:39:22;;;;;;;;;;;5.10;64.20;;;;;;5027905;28;88515;-49
2022/04/19 09:41:59;;;;;;;;;;;5.10;63.70;;;;;;5028105;28;87204;-50
2022/04/19 09:44:24;;;;;;;;;;;5.10;63.80;;;;;;5028175;28;88015;-49
2022/04/19 09:47:02;;;;;;;;;;;5.10;63.50;;;;;;5028023;28;87414;-50
2022/04/19 09:50:00;;;;;;;;;;;5.10;63.50;;;;;;5031043;28;86876;-49
2022/04/19 09:52:26;;;;;;;;;;;5.20;63.60;;;;;;4982829;28;88422;-49
2022/04/19 09:55:02;;;;;;;;;;;5.10;63.40;;;;;;5028540;28;86105;-49
2022/04/19 09:57:32;;;;;;;;;;;5.10;63.90;;;;;;5027909;28;87313;-49
2022/04/19 09:59:59;;;;;;;;;;;5.20;63.80;;;;;;5027349;28;87955;-49
2022/04/19 10:10:42;;;;;;;;;;;5.20;63.60;;;;;;5027978;28;86886;-50
2022/04/19 10:13:08;;;;;;;;;;;5.20;64.10;;;;;;5030114;28;87845;-49
2022/04/19 10:15:34;;;;;;;;;;;5.20;63.60;;;;;;5027671;28;87208;-49
2022/04/19 10:18:00;;;;;;;;;;;5.30;63.70;;;;;;5028006;28;87184;-49
2022/04/19 10:20:32;;;;;;;;;;;5.20;63.60;;;;;;5027667;28;86923;-49
2022/04/19 10:23:02;;;;;;;;;;;5.20;63.90;;;;;;5027589;28;86862;-49
2022/04/19 10:25:43;;;;;;;;;;;5.20;63.80;;;;;;5027514;28;87903;-49
2022/04/19 10:28:09;;;;;;;;;;;5.20;63.90;;;;;;5026418;28;88802;-49
2022/04/19 10:30:39;;;;;;;;;;;5.20;64.20;;;;;;5027713;28;87160;-50
2022/04/19 10:33:30;;;;;;;;;;;5.20;63.90;;;;;;5027538;28;87141;-49
2022/04/19 10:36:09;;;;;;;;;;;5.20;63.80;;;;;;4990742;28;88565;-49
2022/04/19 10:38:34;;;;;;;;;;;5.20;63.90;;;;;;5027379;28;87826;-49
2022/04/19 10:41:00;;;;;;;;;;;5.30;63.80;;;;;;5027068;28;87069;-49
2022/04/19 10:43:27;;;;;;;;;;;5.20;63.80;;;;;;5027420;28;86879;-49
2022/04/19 10:45:54;;;;;;;;;;;5.30;63.70;;;;;;5027656;28;86735;-49
2022/04/19 10:48:22;;;;;;;;;;;5.30;63.50;;;;;;5026806;28;88526;-49
2022/04/19 10:50:51;;;;;;;;;;;5.30;63.60;;;;;;5027116;28;86840;-49
2022/04/19 10:53:17;;;;;;;;;;;5.30;63.50;;;;;;5026731;28;87811;-49
2022/04/19 10:56:05;;;;;;;;;;;5.30;63.90;;;;;;5026702;28;88506;-49
2022/04/19 10:58:38;;;;;;;;;;;5.40;63.50;;;;;;5029996;28;86892;-49
2022/04/19 11:01:05;;;;;;;;;;;5.40;63.50;;;;;;5026553;28;89000;-50
2022/04/19 11:03:35;;;;;;;;;;;5.40;63.70;;;;;;5026829;28;87137;-51
2022/04/19 11:06:02;;;;;;;;;;;5.40;63.70;;;;;;5026640;28;87069;-50
2022/04/19 11:08:30;;;;;;;;;;;5.40;63.60;;;;;;5026479;28;88565;-49
2022/04/19 11:10:55;;;;;;;;;;;5.40;63.70;;;;;;5027491;28;86114;-50
2022/04/19 11:13:26;;;;;;;;;;;5.40;63.60;;;;;;5026768;28;87378;-49
2022/04/19 11:15:59;;;;;;;;;;;5.40;63.80;;;;;;5026408;28;88472;-49
2022/04/19 11:18:29;;;;;;;;;;;5.40;63.90;;;;;;5029026;28;87773;-49
2022/04/19 11:20:57;;;;;;;;;;;5.40;63.60;;;;;;5026279;28;88426;-49
2022/04/19 11:23:24;;;;;;;;;;;5.40;63.70;;;;;;5026628;28;86884;-49
2022/04/19 11:25:51;;;;;;;;;;;5.30;63.90;;;;;;5025697;28;87158;-50
2022/04/19 11:28:17;;;;;;;;;;;5.30;63.90;;;;;;5026146;28;88387;-49
2022/04/19 11:30:49;;;;;;;;;;;5.40;63.90;;;;;;5026506;28;86951;-49
2022/04/19 11:33:29;;;;;;;;;;;5.40;63.90;;;;;;5026760;28;87129;-49
2022/04/19 11:35:59;;;;;;;;;;;5.40;64.00;;;;;;5026658;28;87732;-49
2022/04/19 11:38:24;;;;;;;;;;;5.40;64.00;;;;;;5026395;28;86983;-49
2022/04/19 11:49:05;;;;;;;;;;;5.40;63.90;;;;;;5026262;28;87147;-49
2022/04/19 11:51:35;;;;;;;;;;;5.40;63.80;;;;;;5026227;28;86929;-49
2022/04/19 11:54:01;;;;;;;;;;;5.40;63.70;;;;;;5025948;28;87039;-49
2022/04/19 11:56:27;;;;;;;;;;;5.50;63.90;;;;;;5025641;28;88563;-49
2022/04/19 11:58:53;;;;;;;;;;;5.50;63.80;;;;;;5026555;28;87045;-49
2022/04/19 12:01:20;;;;;;;;;;;5.40;63.90;;;;;;5026544;28;87082;-49
2022/04/19 12:03:45;;;;;;;;;;;5.50;63.70;;;;;;5028903;28;87457;-49
2022/04/19 12:06:11;;;;;;;;;;;5.50;63.50;;;;;;5026130;28;86816;-50
2022/04/19 12:08:44;;;;;;;;;;;5.50;63.50;;;;;;5024980;28;89391;-49
2022/04/19 12:11:16;;;;;;;;;;;5.50;63.60;;;;;;5026074;28;86864;-50
2022/04/19 12:13:46;;;;;;;;;;;5.50;63.70;;;;;;5026735;28;87137;-49
2022/04/19 12:16:30;;;;;;;;;;;5.60;63.70;;;;;;5029141;28;88521;-49
2022/04/19 12:19:03;;;;;;;;;;;5.60;64.00;;;;;;5028820;28;87010;-49
2022/04/19 12:21:41;;;;;;;;;;;5.60;63.60;;;;;;5029462;28;87910;-49
2022/04/19 12:24:08;;;;;;;;;;;5.60;63.60;;;;;;5028454;28;86905;-52
2022/04/19 12:26:34;;;;;;;;;;;5.60;63.50;;;;;;5032808;28;86375;-49
2022/04/19 12:29:07;;;;;;;;;;;5.60;63.50;;;;;;5028967;28;88450;-50
2022/04/19 12:31:34;;;;;;;;;;;5.60;63.70;;;;;;5029285;28;86845;-50
2022/04/19 12:34:00;;;;;;;;;;;5.60;63.70;;;;;;5028582;28;88199;-49
2022/04/19 12:36:27;;;;;;;;;;;5.60;63.70;;;;;;5028842;28;88650;-49
2022/04/19 12:39:03;;;;;;;;;;;5.60;63.70;;;;;;5029229;28;86931;-49
2022/04/19 12:41:36;;;;;;;;;;;5.60;63.80;;;;;;5029149;28;87939;-49
2022/04/19 12:44:02;;;;;;;;;;;5.60;64.30;;;;;;5028624;28;87597;-49
2022/04/19 12:46:28;;;;;;;;;;;5.70;63.80;;;;;;5029070;28;86833;-49
2022/04/19 12:48:54;;;;;;;;;;;5.70;63.80;;;;;;5031683;28;87989;-49
2022/04/19 12:51:26;;;;;;;;;;;5.70;63.70;;;;;;5029875;28;86081;-49
2022/04/19 12:54:02;;;;;;;;;;;5.70;63.80;;;;;;5028968;28;87500;-50
2022/04/19 12:56:28;;;;;;;;;;;5.70;63.80;;;;;;5028542;28;88510;-49
2022/04/19 12:59:05;;;;;;;;;;;5.70;63.80;;;;;;5028319;28;88061;-50
2022/04/19 13:01:31;;;;;;;;;;;5.80;63.70;;;;;;5029121;28;86778;-49
2022/04/19 13:03:57;;;;;;;;;;;5.80;63.50;;;;;;5028385;28;88392;-50
2022/04/19 13:14:35;;;;;;;;;;;5.90;63.60;;;;;;5028913;28;86870;-49
2022/04/19 13:17:01;;;;;;;;;;;5.80;63.50;;;;;;5028905;28;87957;-50
2022/04/19 13:19:27;;;;;;;;;;;5.80;63.70;;;;;;5028669;28;87156;-49
2022/04/19 13:21:52;;;;;;;;;;;5.90;63.70;;;;;;5028750;28;87477;-49
2022/04/19 13:24:18;;;;;;;;;;;5.90;63.60;;;;;;5027500;28;89597;-50
2022/04/19 13:26:44;;;;;;;;;;;5.90;63.60;;;;;;5027317;28;87103;-49
2022/04/19 13:29:11;;;;;;;;;;;5.90;63.80;;;;;;5028411;28;87893;-49
2022/04/19 13:31:37;;;;;;;;;;;5.90;63.60;;;;;;5030870;28;88677;-49
2022/04/19 13:34:03;;;;;;;;;;;5.90;63.60;;;;;;5028348;28;88088;-50
2022/04/19 13:36:28;;;;;;;;;;;5.90;63.70;;;;;;5028242;28;87042;-49
2022/04/19 13:38:55;;;;;;;;;;;6.00;63.40;;;;;;5028323;28;86846;-49
2022/04/19 13:41:21;;;;;;;;;;;6.00;63.40;;;;;;5028923;28;86226;-50
2022/04/19 13:43:47;;;;;;;;;;;6.10;63.20;;;;;;5027731;28;88581;-49
2022/04/19 13:46:13;;;;;;;;;;;6.00;63.30;;;;;;5028224;28;86890;-48
2022/04/19 13:48:39;;;;;;;;;;;6.00;63.30;;;;;;5027596;28;87798;-49
2022/04/19 13:51:05;;;;;;;;;;;6.00;63.40;;;;;;5027742;28;88439;-50
2022/04/19 13:53:32;;;;;;;;;;;6.00;63.30;;;;;;5030744;28;87049;-49
2022/04/19 13:55:58;;;;;;;;;;;6.00;63.40;;;;;;5027546;28;88531;-50
2022/04/19 13:58:24;;;;;;;;;;;6.10;63.30;;;;;;5027954;28;86894;-49
2022/04/19 14:00:50;;;;;;;;;;;6.10;63.50;;;;;;5027951;28;86872;-50
2022/04/19 14:03:15;;;;;;;;;;;6.10;63.10;;;;;;5027478;28;87492;-49
2022/04/19 14:05:41;;;;;;;;;;;6.10;63.20;;;;;;5027899;28;86226;-49
2022/04/19 14:08:07;;;;;;;;;;;6.10;63.20;;;;;;5027774;28;86822;-49
2022/04/19 14:10:32;;;;;;;;;;;6.10;63.30;;;;;;5027759;28;87549;-49
2022/04/19 14:12:58;;;;;;;;;;;6.20;63.30;;;;;;5026935;28;87834;-49
2022/04/19 14:15:24;;;;;;;;;;;6.20;63.00;;;;;;5030376;28;88020;-49
2022/04/19 14:17:49;;;;;;;;;;;6.20;63.20;;;;;;5027747;28;87175;-49
2022/04/19 14:20:16;;;;;;;;;;;6.20;63.10;;;;;;5028044;28;86786;-50
2022/04/19 14:22:42;;;;;;;;;;;6.20;63.20;;;;;;5027190;28;87861;-49
2022/04/19 14:25:08;;;;;;;;;;;6.20;63.20;;;;;;5027542;28;86873;-49
2022/04/19 14:27:34;;;;;;;;;;;6.20;63.20;;;;;;5027845;28;86867;-48
2022/04/19 14:35:28;;;;;;;;;;;6.30;63.30;;;;;;5024548;28;86837;-49
2022/04/19 14:37:54;;;;;;;;;;;6.30;63.30;;;;;;5029190;28;88343;-49
2022/04/19 14:40:20;;;;;;;;;;;6.30;63.20;;;;;;5027644;28;87200;-49
2022/04/19 14:42:45;;;;;;;;;;;6.30;63.10;;;;;;5026813;28;87849;-49
2022/04/19 14:45:13;;;;;;;;;;;6.40;63.00;;;;;;5027298;28;87222;-49
2022/04/19 14:47:39;;;;;;;;;;;6.40;63.00;;;;;;5027302;28;87068;-49
2022/04/19 14:50:05;;;;;;;;;;;6.40;62.90;;;;;;5026771;28;88513;-49
2022/04/19 14:52:31;;;;;;;;;;;6.40;63.00;;;;;;5026918;28;86883;-49
2022/04/19 14:54:57;;;;;;;;;;;6.40;63.10;;;;;;5027906;28;86849;-51
2022/04/19 14:57:23;;;;;;;;;;;6.40;63.10;;;;;;5027008;28;86898;-49
2022/04/19 14:59:49;;;;;;;;;;;6.40;62.90;;;;;;5029905;28;86879;-49
2022/04/19 15:02:15;;;;;;;;;;;6.40;62.90;;;;;;5026055;28;89256;-49
2022/04/19 15:04:41;;;;;;;;;;;6.40;63.10;;;;;;5025873;28;87082;-49
2022/04/19 15:07:07;;;;;;;;;;;6.50;63.10;;;;;;5026898;28;87036;-49
2022/04/19 15:09:32;;;;;;;;;;;6.50;63.10;;;;;;5026850;28;87562;-49
2022/04/19 15:12:02;;;;;;;;;;;6.50;62.80;;;;;;5026589;28;86811;-49
2022/04/19 15:14:28;;;;;;;;;;;6.50;62.80;;;;;;5026755;28;86949;-49
2022/04/19 15:16:54;;;;;;;;;;;6.50;62.70;;;;;;5026460;28;87740;-49
2022/04/19 15:19:20;;;;;;;;;;;6.60;62.80;;;;;;5027141;28;86442;-49
2022/04/19 15:21:45;;;;;;;;;;;6.60;62.70;;;;;;5029412;28;86874;-49
2022/04/19 15:24:11;;;;;;;;;;;6.60;62.50;;;;;;5026821;28;86863;-49
2022/04/19 15:26:37;;;;;;;;;;;6.60;62.60;;;;;;5026239;28;87837;-49